Time;durP1;ratioP1;P1;durP2;ratioP2;P2;SDS_P1;SDS_P2;PMS_P1;PMS_P2;Temp;Humidity;BMP_temperature;BMP_pressure;BME280_temperature;BME280_humidity;BME280_pressure;Samples;Min_cycle;Max_cycle;Signal;HPM_P1;HPM_P2
2021/05/06 00:02:33;;;;;;;;;;;18.80;60.20;;;;;;5074334;28;1058;-65
2021/05/06 00:05:21;;;;;;;;;;;18.80;60.30;;;;;;5072887;28;1905;-65
2021/05/06 00:08:02;;;;;;;;;;;18.80;60.20;;;;;;5073690;28;1085;-65
2021/05/06 00:32:11;;;;;;;;;;;18.70;60.30;;;;;;5073779;28;979;-65
2021/05/06 00:34:37;;;;;;;;;;;18.70;60.30;;;;;;5074237;28;1046;-65
2021/05/06 00:37:02;;;;;;;;;;;18.70;60.30;;;;;;5072673;28;1145;-65
2021/05/06 00:39:32;;;;;;;;;;;18.70;60.40;;;;;;5073098;28;1066;-65
2021/05/06 00:42:12;;;;;;;;;;;18.70;60.40;;;;;;5074016;28;1066;-65
2021/05/06 00:59:26;;;;;;;;;;;18.70;60.40;;;;;;5052334;28;1481;-65
2021/05/06 01:07:37;;;;;;;;;;;18.70;60.50;;;;;;5026823;28;1196;-65
2021/05/06 01:12:40;;;;;;;;;;;18.60;60.50;;;;;;5071087;28;1095;-65
2021/05/06 01:15:06;;;;;;;;;;;18.70;60.50;;;;;;5057731;28;1176;-65
2021/05/06 01:17:31;;;;;;;;;;;18.60;60.50;;;;;;5051838;28;1090;-65
2021/05/06 01:19:57;;;;;;;;;;;18.60;60.50;;;;;;5047761;28;1349;-65
2021/05/06 01:22:22;;;;;;;;;;;18.70;60.60;;;;;;5053006;28;1054;-66
2021/05/06 01:24:54;;;;;;;;;;;18.70;60.60;;;;;;5052703;28;1947;-65
2021/05/06 01:27:35;;;;;;;;;;;18.60;60.50;;;;;;5051566;28;1148;-66
2021/05/06 01:32:45;;;;;;;;;;;18.60;60.50;;;;;;5052513;28;1059;-65
2021/05/06 01:35:19;;;;;;;;;;;18.60;60.60;;;;;;5053714;28;1047;-65
2021/05/06 01:38:00;;;;;;;;;;;18.60;60.60;;;;;;5043650;28;1267;-65
2021/05/06 01:43:21;;;;;;;;;;;18.60;60.60;;;;;;5057809;28;1305;-65
2021/05/06 01:51:19;;;;;;;;;;;18.60;60.60;;;;;;5061565;28;1278;-66
2021/05/06 01:59:24;;;;;;;;;;;18.60;60.60;;;;;;5065792;28;1052;-66
2021/05/06 02:01:49;;;;;;;;;;;18.60;60.70;;;;;;5061599;28;1348;-66
2021/05/06 02:04:15;;;;;;;;;;;18.60;60.70;;;;;;5062535;28;1913;-65
2021/05/06 02:06:40;;;;;;;;;;;18.60;60.70;;;;;;5059833;28;1241;-66
2021/05/06 02:09:06;;;;;;;;;;;18.60;60.70;;;;;;5059672;28;1199;-66
2021/05/06 02:11:31;;;;;;;;;;;18.60;60.70;;;;;;5066495;28;1424;-66
2021/05/06 02:13:57;;;;;;;;;;;18.60;60.70;;;;;;5054131;28;1086;-66
2021/05/06 02:16:44;;;;;;;;;;;18.60;60.70;;;;;;5052290;28;1194;-66
2021/05/06 02:19:09;;;;;;;;;;;18.60;60.70;;;;;;5052357;28;1066;-66
2021/05/06 02:21:34;;;;;;;;;;;18.60;60.70;;;;;;5046900;28;1310;-66
2021/05/06 02:24:00;;;;;;;;;;;18.60;60.70;;;;;;5051270;28;1914;-66
2021/05/06 02:26:25;;;;;;;;;;;18.60;60.70;;;;;;5050419;28;1072;-65
2021/05/06 02:28:51;;;;;;;;;;;18.50;60.70;;;;;;5051271;28;1422;-66
2021/05/06 02:31:16;;;;;;;;;;;18.60;60.70;;;;;;5051268;28;1239;-66
2021/05/06 02:33:42;;;;;;;;;;;18.60;60.70;;;;;;5052411;28;1165;-66
2021/05/06 02:36:07;;;;;;;;;;;18.50;60.70;;;;;;5050981;28;1140;-66
2021/05/06 02:38:33;;;;;;;;;;;18.50;60.70;;;;;;5052145;28;1117;-65
2021/05/06 02:40:58;;;;;;;;;;;18.60;60.80;;;;;;5051941;28;1285;-66
2021/05/06 02:43:24;;;;;;;;;;;18.50;60.70;;;;;;5052110;28;1107;-65
2021/05/06 02:45:49;;;;;;;;;;;18.50;60.70;;;;;;5051473;28;1882;-66
2021/05/06 02:48:14;;;;;;;;;;;18.50;60.70;;;;;;5051905;28;1126;-66
2021/05/06 02:50:46;;;;;;;;;;;18.60;60.80;;;;;;5050268;28;1271;-65
2021/05/06 02:53:16;;;;;;;;;;;18.50;60.80;;;;;;5051337;28;1042;-65
2021/05/06 02:56:11;;;;;;;;;;;18.60;60.80;;;;;;5051499;28;1153;-65
2021/05/06 03:03:44;;;;;;;;;;;18.50;60.80;;;;;;5051063;28;1232;-65
2021/05/06 03:06:17;;;;;;;;;;;18.50;60.80;;;;;;5050886;28;1902;-65
2021/05/06 03:08:46;;;;;;;;;;;18.50;60.80;;;;;;5052175;28;1103;-65
2021/05/06 03:11:30;;;;;;;;;;;18.60;60.80;;;;;;5052053;28;1326;-65
2021/05/06 03:24:54;;;;;;;;;;;18.50;60.80;;;;;;5055404;28;1967;-66
2021/05/06 03:27:22;;;;;;;;;;;18.50;60.80;;;;;;5055010;28;1079;-66
2021/05/06 03:43:58;;;;;;;;;;;18.50;60.80;;;;;;5054619;28;1135;-66
2021/05/06 04:16:57;;;;;;;;;;;18.70;60.30;;;;;;5052969;28;1075;-64
2021/05/06 04:27:09;;;;;;;;;;;18.70;60.20;;;;;;5052668;28;1114;-63
2021/05/06 04:38:07;;;;;;;;;;;18.70;60.10;;;;;;5010839;28;1236;-66
2021/05/06 05:06:42;;;;;;;;;;;18.80;60.00;;;;;;5053879;28;1043;-65
2021/05/06 05:11:59;;;;;;;;;;;18.80;60.00;;;;;;5054209;28;1632;-65
2021/05/06 05:14:36;;;;;;;;;;;18.80;59.90;;;;;;5053241;28;1180;-64
2021/05/06 05:25:02;;;;;;;;;;;18.80;59.90;;;;;;5052186;28;2025;-66
2021/05/06 05:27:27;;;;;;;;;;;18.80;59.90;;;;;;5051595;28;1063;-65
2021/05/06 05:29:53;;;;;;;;;;;18.80;59.90;;;;;;5053445;28;1243;-65
2021/05/06 05:32:18;;;;;;;;;;;18.80;59.90;;;;;;5053558;28;1059;-67
2021/05/06 05:34:48;;;;;;;;;;;18.80;59.90;;;;;;5050463;28;2085;-66
2021/05/06 05:37:19;;;;;;;;;;;18.80;59.90;;;;;;5057187;28;1390;-65
2021/05/06 05:39:58;;;;;;;;;;;18.80;59.90;;;;;;5053593;28;1490;-65
2021/05/06 05:55:43;;;;;;;;;;;18.80;59.90;;;;;;5053380;28;1666;-66
2021/05/06 05:58:09;;;;;;;;;;;18.80;59.90;;;;;;5053252;28;1559;-66
2021/05/06 06:00:35;;;;;;;;;;;18.80;59.90;;;;;;5053233;28;1698;-66
2021/05/06 06:03:00;;;;;;;;;;;18.80;59.90;;;;;;5053167;28;1500;-66
2021/05/06 06:05:25;;;;;;;;;;;18.80;59.90;;;;;;5051611;28;1914;-63
2021/05/06 06:07:51;;;;;;;;;;;18.90;59.90;;;;;;5048202;28;2077;-64
2021/05/06 06:10:16;;;;;;;;;;;18.90;59.90;;;;;;5071865;28;1587;-64
2021/05/06 06:12:42;;;;;;;;;;;18.90;59.90;;;;;;5071986;28;1447;-64
2021/05/06 06:15:12;;;;;;;;;;;18.90;59.90;;;;;;5058026;28;1182;-64
2021/05/06 06:17:43;;;;;;;;;;;18.90;59.90;;;;;;5051578;28;1373;-64
2021/05/06 06:20:09;;;;;;;;;;;18.90;59.80;;;;;;5048095;28;1626;-64
2021/05/06 06:22:35;;;;;;;;;;;18.90;59.80;;;;;;5051505;28;1654;-63
2021/05/06 06:25:03;;;;;;;;;;;18.90;59.80;;;;;;5051458;28;1898;-65
2021/05/06 06:27:29;;;;;;;;;;;18.90;59.80;;;;;;5051007;28;1639;-64
2021/05/06 06:29:55;;;;;;;;;;;18.90;59.80;;;;;;5050843;28;1641;-65
2021/05/06 06:32:20;;;;;;;;;;;18.90;59.80;;;;;;5053004;28;1586;-65
2021/05/06 06:34:47;;;;;;;;;;;18.90;59.80;;;;;;5053004;28;1349;-64
2021/05/06 06:37:13;;;;;;;;;;;18.90;59.80;;;;;;5052612;28;1375;-64
2021/05/06 06:39:40;;;;;;;;;;;18.90;59.80;;;;;;5051535;28;1715;-63
2021/05/06 06:42:09;;;;;;;;;;;18.90;59.80;;;;;;5051389;28;1651;-64
2021/05/06 06:44:36;;;;;;;;;;;18.90;59.80;;;;;;5051541;28;1903;-63
2021/05/06 06:47:02;;;;;;;;;;;18.90;59.80;;;;;;5059897;28;902;-63
2021/05/06 06:49:31;;;;;;;;;;;18.90;59.80;;;;;;5070489;28;1687;-63
2021/05/06 06:51:57;;;;;;;;;;;18.90;59.80;;;;;;5071489;28;1661;-63
2021/05/06 06:54:24;;;;;;;;;;;18.90;59.80;;;;;;5069923;28;1688;-64
2021/05/06 06:56:50;;;;;;;;;;;18.90;59.80;;;;;;5070970;28;1342;-64
2021/05/06 06:59:15;;;;;;;;;;;18.90;59.80;;;;;;5071411;28;1492;-63
2021/05/06 07:01:40;;;;;;;;;;;18.90;59.80;;;;;;5086963;22;2299;-68
2021/05/06 07:04:06;;;;;;;;;;;18.90;59.80;;;;;;5060132;28;1911;-69
2021/05/06 07:06:31;;;;;;;;;;;18.90;59.80;;;;;;5070458;28;1226;-70
2021/05/06 07:08:57;;;;;;;;;;;18.90;59.80;;;;;;5060590;28;1273;-69
2021/05/06 07:11:23;;;;;;;;;;;18.90;59.80;;;;;;5055488;28;1662;-69
2021/05/06 07:13:48;;;;;;;;;;;18.90;59.80;;;;;;5050865;28;1609;-69
2021/05/06 07:16:14;;;;;;;;;;;18.90;59.80;;;;;;5048076;28;1509;-69
2021/05/06 07:18:39;;;;;;;;;;;18.90;59.70;;;;;;5051083;28;1675;-69
2021/05/06 07:21:05;;;;;;;;;;;18.90;59.70;;;;;;5038691;28;1403;-68
2021/05/06 07:23:31;;;;;;;;;;;18.90;59.80;;;;;;5047424;28;1822;-69
2021/05/06 07:25:57;;;;;;;;;;;18.90;59.80;;;;;;5052088;28;1921;-68
2021/05/06 07:28:23;;;;;;;;;;;18.90;59.80;;;;;;5050797;28;1689;-68
2021/05/06 07:30:49;;;;;;;;;;;18.90;59.70;;;;;;5050690;28;1342;-68
2021/05/06 07:33:14;;;;;;;;;;;18.90;59.70;;;;;;5050418;28;1611;-68
2021/05/06 07:35:40;;;;;;;;;;;18.90;59.70;;;;;;5050427;28;1709;-68
2021/05/06 07:38:05;;;;;;;;;;;18.90;59.70;;;;;;5051788;28;1196;-68
2021/05/06 07:40:31;;;;;;;;;;;18.90;59.70;;;;;;5050832;28;1671;-68
2021/05/06 07:42:57;;;;;;;;;;;18.90;59.80;;;;;;5050421;28;1710;-67
2021/05/06 07:45:22;;;;;;;;;;;18.90;59.80;;;;;;5051240;28;1898;-67
2021/05/06 07:47:48;;;;;;;;;;;18.90;59.80;;;;;;5051592;28;1366;-67
2021/05/06 07:50:13;;;;;;;;;;;18.90;59.70;;;;;;5052061;28;1659;-67
2021/05/06 07:52:41;;;;;;;;;;;18.90;59.80;;;;;;5033979;28;1581;-67
2021/05/06 07:55:07;;;;;;;;;;;18.90;59.70;;;;;;5052056;28;1415;-69
2021/05/06 07:57:33;;;;;;;;;;;18.90;59.70;;;;;;5050700;28;1720;-69
2021/05/06 07:59:58;;;;;;;;;;;18.90;59.70;;;;;;5051949;28;1655;-68
2021/05/06 08:02:24;;;;;;;;;;;18.90;59.70;;;;;;5051610;28;1387;-69
2021/05/06 08:04:49;;;;;;;;;;;18.90;59.70;;;;;;5051631;28;1894;-69
2021/05/06 08:07:15;;;;;;;;;;;19.00;59.80;;;;;;5049276;28;1439;-69
2021/05/06 08:09:40;;;;;;;;;;;18.90;59.70;;;;;;5051743;28;1423;-69
2021/05/06 08:12:06;;;;;;;;;;;18.90;59.70;;;;;;5054917;28;1408;-68
2021/05/06 08:14:32;;;;;;;;;;;18.90;59.70;;;;;;5054054;28;1578;-68
2021/05/06 08:16:57;;;;;;;;;;;19.00;59.80;;;;;;5054305;28;1737;-68
2021/05/06 08:19:23;;;;;;;;;;;18.90;59.70;;;;;;5053451;28;1577;-68
2021/05/06 08:21:48;;;;;;;;;;;18.90;59.70;;;;;;5036933;28;1450;-68
2021/05/06 08:24:14;;;;;;;;;;;19.00;59.80;;;;;;5054907;28;1906;-68
2021/05/06 08:26:39;;;;;;;;;;;18.90;59.70;;;;;;5036134;28;1596;-68
2021/05/06 08:29:04;;;;;;;;;;;18.90;59.70;;;;;;5054589;28;1586;-68
2021/05/06 08:31:30;;;;;;;;;;;19.00;59.80;;;;;;5054804;28;1459;-68
2021/05/06 08:33:56;;;;;;;;;;;18.90;59.70;;;;;;5055156;28;1602;-68
2021/05/06 08:36:22;;;;;;;;;;;18.90;59.70;;;;;;5052403;28;1435;-68
2021/05/06 08:38:47;;;;;;;;;;;19.00;59.70;;;;;;5054853;28;1368;-68
2021/05/06 08:41:13;;;;;;;;;;;19.00;59.70;;;;;;5054586;28;1610;-68
2021/05/06 08:43:40;;;;;;;;;;;19.00;59.70;;;;;;5054376;28;1646;-68
2021/05/06 08:46:06;;;;;;;;;;;19.00;59.70;;;;;;5053890;28;1898;-67
2021/05/06 08:48:31;;;;;;;;;;;19.00;59.70;;;;;;5051442;28;1628;-68
2021/05/06 08:50:57;;;;;;;;;;;19.00;59.70;;;;;;5045119;28;1583;-67
2021/05/06 08:53:22;;;;;;;;;;;18.90;59.70;;;;;;5053725;28;1498;-69
2021/05/06 08:55:48;;;;;;;;;;;18.90;59.70;;;;;;5053821;28;1438;-68
2021/05/06 08:58:14;;;;;;;;;;;19.00;59.70;;;;;;5053912;28;1584;-68
2021/05/06 09:00:39;;;;;;;;;;;19.00;59.70;;;;;;5053112;28;1636;-68
2021/05/06 09:03:05;;;;;;;;;;;19.00;59.70;;;;;;5054228;28;1334;-68
2021/05/06 09:05:31;;;;;;;;;;;19.00;59.70;;;;;;5053504;28;2341;-68
2021/05/06 09:07:56;;;;;;;;;;;19.00;59.70;;;;;;5053805;28;1372;-67
2021/05/06 09:10:37;;;;;;;;;;;18.90;59.70;;;;;;5054183;28;1695;-68
2021/05/06 09:13:03;;;;;;;;;;;19.00;59.80;;;;;;5054208;28;1645;-67
2021/05/06 09:15:28;;;;;;;;;;;19.00;59.80;;;;;;5052314;28;1686;-67
2021/05/06 09:17:54;;;;;;;;;;;19.00;59.70;;;;;;5054236;28;1431;-68
2021/05/06 09:20:26;;;;;;;;;;;18.90;59.70;;;;;;5044839;28;1389;-68
2021/05/06 09:22:52;;;;;;;;;;;19.00;59.70;;;;;;5020290;28;2130;-69
2021/05/06 09:25:36;;;;;;;;;;;19.00;59.80;;;;;;5044936;28;1906;-70
2021/05/06 09:28:02;;;;;;;;;;;19.00;60.40;;;;;;5041111;28;2240;-70
2021/05/06 09:30:28;;;;;;;;;;;19.00;59.70;;;;;;5052179;28;1465;-70
2021/05/06 09:33:03;;;;;;;;;;;19.00;59.70;;;;;;5051121;28;1647;-70
2021/05/06 09:35:29;;;;;;;;;;;19.00;59.80;;;;;;5038991;28;1132;-70
2021/05/06 09:37:55;;;;;;;;;;;19.00;59.70;;;;;;5052942;28;1445;-70
2021/05/06 09:40:20;;;;;;;;;;;19.00;59.70;;;;;;5051470;28;1254;-70
2021/05/06 09:42:50;;;;;;;;;;;18.90;59.70;;;;;;5052367;28;1344;-70
2021/05/06 09:45:25;;;;;;;;;;;19.00;59.70;;;;;;5052042;28;1961;-70
2021/05/06 09:48:09;;;;;;;;;;;19.00;59.70;;;;;;5038108;28;1265;-70
2021/05/06 09:50:35;;;;;;;;;;;19.00;59.70;;;;;;5052402;28;1416;-70
2021/05/06 09:53:01;;;;;;;;;;;18.90;59.70;;;;;;5050651;28;1474;-70
2021/05/06 09:55:33;;;;;;;;;;;19.00;59.70;;;;;;5051618;28;977;-70
2021/05/06 09:58:10;;;;;;;;;;;19.00;59.70;;;;;;5050524;28;1379;-70
2021/05/06 10:00:36;;;;;;;;;;;19.00;59.70;;;;;;5051935;28;1650;-70
2021/05/06 10:03:08;;;;;;;;;;;19.00;59.70;;;;;;5052251;28;1631;-70
2021/05/06 10:05:35;;;;;;;;;;;19.00;59.70;;;;;;5050041;28;1906;-70
2021/05/06 10:08:01;;;;;;;;;;;19.00;59.70;;;;;;5033618;28;1318;-70
2021/05/06 10:10:26;;;;;;;;;;;19.00;59.70;;;;;;5052372;28;1384;-69
2021/05/06 10:12:51;;;;;;;;;;;19.00;59.70;;;;;;5048681;28;2137;-70
2021/05/06 10:15:18;;;;;;;;;;;19.00;59.70;;;;;;5045122;28;1634;-70
2021/05/06 10:17:44;;;;;;;;;;;19.00;59.70;;;;;;5045803;28;1310;-68
2021/05/06 10:20:09;;;;;;;;;;;19.00;59.70;;;;;;5037840;28;2008;-69
2021/05/06 10:22:35;;;;;;;;;;;19.00;59.70;;;;;;5034307;28;2255;-68
2021/05/06 10:25:01;;;;;;;;;;;19.00;59.70;;;;;;5049933;28;1945;-68
2021/05/06 10:27:26;;;;;;;;;;;19.00;59.70;;;;;;5036855;28;1462;-68
2021/05/06 10:29:56;;;;;;;;;;;19.00;59.70;;;;;;5044658;28;1352;-68
2021/05/06 10:32:21;;;;;;;;;;;19.00;59.70;;;;;;5050113;28;1364;-67
2021/05/06 10:34:47;;;;;;;;;;;19.00;59.70;;;;;;5049467;28;1539;-68
2021/05/06 10:37:13;;;;;;;;;;;19.00;59.70;;;;;;5048318;28;1184;-69
2021/05/06 10:39:39;;;;;;;;;;;19.00;59.70;;;;;;5049650;28;1512;-69
2021/05/06 10:42:23;;;;;;;;;;;19.00;59.70;;;;;;5050263;28;1258;-69
2021/05/06 10:44:48;;;;;;;;;;;19.00;59.70;;;;;;5050785;28;1890;-69
2021/05/06 10:47:15;;;;;;;;;;;19.00;59.70;;;;;;5048591;28;1612;-68
2021/05/06 10:49:40;;;;;;;;;;;19.00;59.70;;;;;;5049500;28;1449;-68
2021/05/06 10:52:07;;;;;;;;;;;19.00;59.70;;;;;;5048280;28;1195;-70
2021/05/06 10:54:48;;;;;;;;;;;19.00;59.70;;;;;;5041187;28;1239;-69
2021/05/06 10:57:19;;;;;;;;;;;19.00;59.70;;;;;;5051270;28;1247;-69
2021/05/06 10:59:45;;;;;;;;;;;19.00;59.70;;;;;;5038484;28;1163;-72
2021/05/06 11:02:11;;;;;;;;;;;19.00;59.70;;;;;;5039183;28;1310;-69
2021/05/06 11:04:39;;;;;;;;;;;19.00;59.70;;;;;;5039079;28;1945;-70
2021/05/06 11:07:12;;;;;;;;;;;19.00;59.70;;;;;;5039658;28;1374;-69
2021/05/06 11:09:37;;;;;;;;;;;19.00;59.60;;;;;;5039455;28;1184;-69
2021/05/06 11:12:15;;;;;;;;;;;19.00;59.60;;;;;;5040214;28;1312;-69
2021/05/06 11:15:07;;;;;;;;;;;19.00;59.60;;;;;;5039741;28;1381;-70
2021/05/06 11:17:32;;;;;;;;;;;19.00;59.60;;;;;;5041724;28;1261;-69
2021/05/06 11:19:58;;;;;;;;;;;19.00;59.70;;;;;;5041429;28;1199;-70
2021/05/06 11:22:38;;;;;;;;;;;19.00;59.60;;;;;;5042012;28;1290;-69
2021/05/06 11:25:22;;;;;;;;;;;19.00;59.60;;;;;;5042339;28;1945;-68
2021/05/06 11:27:48;;;;;;;;;;;19.00;59.70;;;;;;5041265;28;1441;-68
2021/05/06 11:30:32;;;;;;;;;;;19.00;59.60;;;;;;5043653;28;1242;-67
2021/05/06 11:33:16;;;;;;;;;;;19.00;59.70;;;;;;5043610;28;1547;-68
2021/05/06 11:36:04;;;;;;;;;;;19.00;59.60;;;;;;5049672;28;1385;-68
2021/05/06 11:38:35;;;;;;;;;;;19.00;59.60;;;;;;5051078;28;1358;-68
2021/05/06 11:41:01;;;;;;;;;;;19.00;59.60;;;;;;5049905;28;1556;-67
2021/05/06 11:43:26;;;;;;;;;;;19.00;59.60;;;;;;5050154;28;1117;-67
2021/05/06 11:46:10;;;;;;;;;;;19.00;59.60;;;;;;5052583;28;1895;-67
2021/05/06 11:48:39;;;;;;;;;;;19.00;59.60;;;;;;5053594;28;1128;-68
2021/05/06 11:51:04;;;;;;;;;;;19.00;59.60;;;;;;5048943;28;1912;-68
2021/05/06 11:53:30;;;;;;;;;;;19.00;59.60;;;;;;5047409;28;2243;-68
2021/05/06 11:55:55;;;;;;;;;;;19.00;59.60;;;;;;5047381;28;1062;-68
2021/05/06 11:58:22;;;;;;;;;;;19.00;59.60;;;;;;5041440;28;1102;-68
2021/05/06 12:00:47;;;;;;;;;;;19.00;59.60;;;;;;5048985;28;1200;-68
2021/05/06 12:03:12;;;;;;;;;;;19.00;59.70;;;;;;5050088;28;1121;-68
2021/05/06 12:05:46;;;;;;;;;;;19.00;59.70;;;;;;5050354;28;1909;-68
2021/05/06 12:08:11;;;;;;;;;;;19.00;59.70;;;;;;5049542;28;1073;-68
2021/05/06 12:10:40;;;;;;;;;;;19.00;59.70;;;;;;5037166;28;1280;-68
2021/05/06 12:13:05;;;;;;;;;;;19.00;59.70;;;;;;5052634;28;1075;-67
2021/05/06 12:15:31;;;;;;;;;;;19.00;59.70;;;;;;5052728;28;1200;-68
2021/05/06 12:18:15;;;;;;;;;;;19.00;59.70;;;;;;5052758;28;1091;-67
2021/05/06 12:20:47;;;;;;;;;;;19.00;59.70;;;;;;5043445;28;1287;-67
2021/05/06 12:23:12;;;;;;;;;;;19.00;59.60;;;;;;5047844;28;1090;-67
2021/05/06 12:25:38;;;;;;;;;;;19.00;59.60;;;;;;5050518;28;1902;-68
2021/05/06 12:28:03;;;;;;;;;;;19.00;59.60;;;;;;5051735;28;1119;-67
2021/05/06 12:30:28;;;;;;;;;;;19.00;59.60;;;;;;5053055;28;1322;-67
2021/05/06 12:32:54;;;;;;;;;;;19.00;59.60;;;;;;5052765;28;1139;-67
2021/05/06 12:35:19;;;;;;;;;;;19.00;59.60;;;;;;5052143;28;1119;-67
2021/05/06 12:37:45;;;;;;;;;;;19.00;59.60;;;;;;5052710;28;1067;-67
2021/05/06 12:40:11;;;;;;;;;;;19.00;59.60;;;;;;5050912;28;1103;-68
2021/05/06 12:42:36;;;;;;;;;;;19.00;59.60;;;;;;5053067;28;1369;-68
2021/05/06 12:45:26;;;;;;;;;;;19.00;59.60;;;;;;5051987;28;1918;-67
2021/05/06 12:47:51;;;;;;;;;;;19.00;59.60;;;;;;5044812;28;1111;-68
2021/05/06 12:50:21;;;;;;;;;;;19.00;59.60;;;;;;5050728;28;1332;-67
2021/05/06 12:52:50;;;;;;;;;;;19.00;59.60;;;;;;5052634;28;1078;-67
2021/05/06 12:55:16;;;;;;;;;;;19.00;59.60;;;;;;5051876;28;1094;-67
2021/05/06 12:57:42;;;;;;;;;;;19.00;59.60;;;;;;5050392;28;1188;-67
2021/05/06 13:00:20;;;;;;;;;;;19.00;59.60;;;;;;5051238;28;1080;-67
2021/05/06 13:02:46;;;;;;;;;;;19.00;59.60;;;;;;5052443;28;1063;-66
2021/05/06 13:05:13;;;;;;;;;;;19.00;59.60;;;;;;5049979;28;1957;-67
2021/05/06 13:07:49;;;;;;;;;;;19.00;59.60;;;;;;5051977;28;1114;-68
2021/05/06 13:10:25;;;;;;;;;;;19.00;59.60;;;;;;5073400;22;2420;-64
2021/05/06 13:12:50;;;;;;;;;;;19.00;59.60;;;;;;5050789;28;1762;-64
2021/05/06 13:15:16;;;;;;;;;;;19.00;59.60;;;;;;5051695;28;1074;-64
2021/05/06 13:17:41;;;;;;;;;;;19.00;59.60;;;;;;5052327;28;1611;-63
2021/05/06 13:20:15;;;;;;;;;;;19.00;59.60;;;;;;5044158;28;1731;-64
2021/05/06 13:22:41;;;;;;;;;;;19.00;59.60;;;;;;5022871;28;1398;-64
2021/05/06 13:25:07;;;;;;;;;;;19.00;59.60;;;;;;5031350;28;1971;-64
2021/05/06 13:27:32;;;;;;;;;;;19.00;59.60;;;;;;5032165;28;1349;-64
2021/05/06 13:30:01;;;;;;;;;;;19.00;59.60;;;;;;5030982;28;1586;-65
2021/05/06 13:32:33;;;;;;;;;;;19.00;59.60;;;;;;5031889;28;1040;-64
2021/05/06 13:34:58;;;;;;;;;;;19.00;59.60;;;;;;5032882;28;1634;-65
2021/05/06 13:37:32;;;;;;;;;;;19.00;59.60;;;;;;5031094;28;1639;-65
2021/05/06 13:39:58;;;;;;;;;;;19.00;59.60;;;;;;5030325;28;1397;-64
2021/05/06 13:42:23;;;;;;;;;;;19.00;59.60;;;;;;5031897;28;1342;-64
2021/05/06 13:44:53;;;;;;;;;;;19.10;59.60;;;;;;5031760;28;1890;-64
2021/05/06 13:47:19;;;;;;;;;;;19.00;59.60;;;;;;5024652;28;2174;-65
2021/05/06 13:49:44;;;;;;;;;;;19.00;59.60;;;;;;5028409;28;1307;-64
2021/05/06 13:52:10;;;;;;;;;;;19.00;59.60;;;;;;5021554;28;1255;-64
2021/05/06 13:54:35;;;;;;;;;;;19.10;59.60;;;;;;5031504;28;1435;-65
2021/05/06 13:57:01;;;;;;;;;;;19.00;59.60;;;;;;5030580;28;1734;-65
2021/05/06 13:59:26;;;;;;;;;;;19.00;59.60;;;;;;5031437;28;1553;-64
2021/05/06 14:01:55;;;;;;;;;;;19.10;59.60;;;;;;5031430;28;1425;-64
2021/05/06 14:04:21;;;;;;;;;;;19.10;59.60;;;;;;5030128;28;1894;-65
2021/05/06 14:06:46;;;;;;;;;;;19.00;59.60;;;;;;5030363;28;1639;-65
2021/05/06 14:09:16;;;;;;;;;;;19.00;59.60;;;;;;5030947;28;1636;-65
2021/05/06 14:11:41;;;;;;;;;;;19.00;59.60;;;;;;5032257;28;1606;-65
2021/05/06 14:14:07;;;;;;;;;;;19.00;59.60;;;;;;5026799;28;1672;-65
2021/05/06 14:16:32;;;;;;;;;;;19.10;59.60;;;;;;5022946;28;1115;-64
2021/05/06 14:18:58;;;;;;;;;;;19.00;59.60;;;;;;5024498;28;1689;-64
2021/05/06 14:21:24;;;;;;;;;;;19.00;59.60;;;;;;5022627;28;1277;-64
2021/05/06 14:23:50;;;;;;;;;;;19.00;59.60;;;;;;5024007;28;1406;-64
2021/05/06 14:26:15;;;;;;;;;;;19.00;59.60;;;;;;5018556;28;1958;-64
2021/05/06 14:28:41;;;;;;;;;;;19.00;59.50;;;;;;5021690;28;1491;-63
2021/05/06 14:31:07;;;;;;;;;;;19.10;59.60;;;;;;5004659;28;1319;-63
2021/05/06 14:33:33;;;;;;;;;;;19.00;59.50;;;;;;5023375;28;1358;-63
2021/05/06 14:35:58;;;;;;;;;;;19.00;59.60;;;;;;5019072;28;1304;-64
2021/05/06 14:38:23;;;;;;;;;;;19.00;59.50;;;;;;5024009;28;1280;-63
2021/05/06 14:40:49;;;;;;;;;;;19.10;59.60;;;;;;5021627;28;1361;-64
2021/05/06 14:43:14;;;;;;;;;;;19.10;59.60;;;;;;5025467;28;1242;-64
2021/05/06 14:45:40;;;;;;;;;;;19.10;59.60;;;;;;5028694;28;1950;-64
2021/05/06 14:48:07;;;;;;;;;;;19.10;59.60;;;;;;5030313;28;1075;-63
2021/05/06 14:50:32;;;;;;;;;;;19.10;59.60;;;;;;5029128;28;1296;-64
2021/05/06 14:52:58;;;;;;;;;;;19.10;59.60;;;;;;5029089;28;1099;-63
2021/05/06 14:55:23;;;;;;;;;;;19.10;59.60;;;;;;5028030;28;1020;-63
2021/05/06 14:57:49;;;;;;;;;;;19.10;59.60;;;;;;5030113;28;1122;-65
2021/05/06 15:00:14;;;;;;;;;;;19.10;59.60;;;;;;5030332;28;1803;-65
2021/05/06 15:02:42;;;;;;;;;;;19.10;59.60;;;;;;5030279;28;1126;-64
2021/05/06 15:05:07;;;;;;;;;;;19.10;59.60;;;;;;5028749;28;1907;-64
2021/05/06 15:07:33;;;;;;;;;;;19.10;59.60;;;;;;5028412;28;1123;-64
2021/05/06 15:09:58;;;;;;;;;;;19.00;59.60;;;;;;5029884;28;1248;-64
2021/05/06 15:12:23;;;;;;;;;;;19.10;59.60;;;;;;5030146;28;1036;-64
2021/05/06 15:14:49;;;;;;;;;;;19.10;59.60;;;;;;5029962;28;1157;-64
2021/05/06 15:17:14;;;;;;;;;;;19.10;59.60;;;;;;5029665;28;1067;-64
2021/05/06 15:19:40;;;;;;;;;;;19.10;59.60;;;;;;5028933;28;1075;-63
2021/05/06 15:22:05;;;;;;;;;;;19.10;59.60;;;;;;5032040;28;1201;-64
2021/05/06 15:24:31;;;;;;;;;;;19.10;59.60;;;;;;5033929;28;1958;-65
2021/05/06 15:26:56;;;;;;;;;;;19.10;59.60;;;;;;5033105;28;1079;-65
2021/05/06 15:29:22;;;;;;;;;;;19.10;59.60;;;;;;5031414;28;1858;-65
2021/05/06 15:31:47;;;;;;;;;;;19.10;59.60;;;;;;5033837;28;1322;-65
2021/05/06 15:34:12;;;;;;;;;;;19.10;59.60;;;;;;5026638;28;1345;-65
2021/05/06 15:36:38;;;;;;;;;;;19.10;59.60;;;;;;5028162;28;1151;-65
2021/05/06 15:39:04;;;;;;;;;;;19.00;59.50;;;;;;5021787;28;1238;-67
2021/05/06 15:41:29;;;;;;;;;;;19.10;59.60;;;;;;5027175;28;1308;-66
2021/05/06 15:43:55;;;;;;;;;;;19.10;59.60;;;;;;5025627;28;1167;-67
2021/05/06 15:46:20;;;;;;;;;;;19.10;59.60;;;;;;5027540;28;1923;-67
2021/05/06 15:48:46;;;;;;;;;;;19.10;59.60;;;;;;5026885;28;1009;-66
2021/05/06 15:51:14;;;;;;;;;;;19.10;59.60;;;;;;5027577;28;1278;-66
2021/05/06 15:53:42;;;;;;;;;;;19.10;59.60;;;;;;5025165;28;1191;-66
2021/05/06 15:56:08;;;;;;;;;;;19.10;59.60;;;;;;5027449;28;1204;-66
2021/05/06 15:58:35;;;;;;;;;;;19.10;59.60;;;;;;5024379;28;1306;-66
2021/05/06 16:01:01;;;;;;;;;;;19.10;59.60;;;;;;5025292;28;1292;-66
2021/05/06 16:03:29;;;;;;;;;;;19.10;59.60;;;;;;5020112;28;1266;-66
2021/05/06 16:05:55;;;;;;;;;;;19.10;59.60;;;;;;5031658;28;1894;-66
2021/05/06 16:08:20;;;;;;;;;;;19.10;59.60;;;;;;5033997;28;1072;-66
2021/05/06 16:10:46;;;;;;;;;;;19.10;59.60;;;;;;5032997;28;1292;-66
2021/05/06 16:13:12;;;;;;;;;;;19.10;59.60;;;;;;5032529;28;1118;-65
2021/05/06 16:15:37;;;;;;;;;;;19.10;59.60;;;;;;5031565;28;1257;-65
2021/05/06 16:18:03;;;;;;;;;;;19.10;59.60;;;;;;5034003;28;1045;-66
2021/05/06 16:20:33;;;;;;;;;;;19.10;59.60;;;;;;5033044;28;1312;-65
2021/05/06 16:22:58;;;;;;;;;;;19.10;59.60;;;;;;5032274;28;1091;-66
2021/05/06 16:25:24;;;;;;;;;;;19.10;59.60;;;;;;5032399;28;1964;-66
2021/05/06 16:27:49;;;;;;;;;;;19.10;59.60;;;;;;5034025;28;1178;-65
2021/05/06 16:30:15;;;;;;;;;;;19.10;59.50;;;;;;5033332;28;1342;-65
2021/05/06 16:32:42;;;;;;;;;;;19.10;59.60;;;;;;5031851;28;1071;-65
2021/05/06 16:35:11;;;;;;;;;;;19.10;59.60;;;;;;5032482;28;1036;-66
2021/05/06 16:37:55;;;;;;;;;;;19.10;59.60;;;;;;5032507;28;1040;-65
2021/05/06 16:40:31;;;;;;;;;;;19.10;59.60;;;;;;5032270;28;1361;-65
2021/05/06 16:45:42;;;;;;;;;;;19.00;59.50;;;;;;5031923;28;1898;-65
2021/05/06 16:48:08;;;;;;;;;;;19.10;59.60;;;;;;5032163;28;1122;-65
2021/05/06 16:50:33;;;;;;;;;;;19.10;59.60;;;;;;5031353;28;1281;-64
2021/05/06 16:52:59;;;;;;;;;;;19.10;59.60;;;;;;5033399;28;1068;-65
2021/05/06 16:55:24;;;;;;;;;;;19.10;59.60;;;;;;5032286;28;1083;-65
2021/05/06 16:57:50;;;;;;;;;;;19.10;59.60;;;;;;5032559;28;1228;-65
2021/05/06 17:00:15;;;;;;;;;;;19.00;59.60;;;;;;5032267;28;1288;-65
2021/05/06 17:02:41;;;;;;;;;;;19.10;59.60;;;;;;5032019;28;1072;-65
2021/05/06 17:05:12;;;;;;;;;;;19.10;59.60;;;;;;5032020;28;1891;-65
2021/05/06 17:07:40;;;;;;;;;;;19.10;59.60;;;;;;5030527;28;1508;-65
2021/05/06 17:10:06;;;;;;;;;;;19.10;59.60;;;;;;5030502;28;1232;-65
2021/05/06 17:12:33;;;;;;;;;;;19.00;59.60;;;;;;5032499;28;1119;-65
2021/05/06 17:14:58;;;;;;;;;;;19.00;59.60;;;;;;5032585;28;1134;-65
2021/05/06 17:17:24;;;;;;;;;;;19.10;59.60;;;;;;5031347;28;1150;-65
2021/05/06 17:19:49;;;;;;;;;;;19.10;59.60;;;;;;5027923;28;1056;-65
2021/05/06 17:22:15;;;;;;;;;;;19.00;59.60;;;;;;5030634;28;1346;-64
2021/05/06 17:24:40;;;;;;;;;;;19.10;59.70;;;;;;5032260;28;1965;-66
2021/05/06 17:27:05;;;;;;;;;;;19.00;59.60;;;;;;5028242;28;1523;-66
2021/05/06 17:29:31;;;;;;;;;;;19.00;59.60;;;;;;5028766;28;1978;-66
2021/05/06 17:31:56;;;;;;;;;;;19.00;59.60;;;;;;5030549;28;1813;-64
2021/05/06 17:34:22;;;;;;;;;;;19.00;59.60;;;;;;5032545;28;1329;-64
2021/05/06 17:36:48;;;;;;;;;;;19.00;59.60;;;;;;5031107;28;1378;-65
2021/05/06 17:39:14;;;;;;;;;;;19.00;59.60;;;;;;5032091;28;1267;-64
2021/05/06 17:41:39;;;;;;;;;;;19.00;59.60;;;;;;5031612;28;1252;-64
2021/05/06 17:44:05;;;;;;;;;;;19.00;59.60;;;;;;5032172;28;1390;-65
2021/05/06 17:46:31;;;;;;;;;;;19.00;59.60;;;;;;5031125;28;1902;-64